Time;durP1;ratioP1;P1;durP2;ratioP2;P2;SDS_P1;SDS_P2;PMS_P1;PMS_P2;Temp;Humidity;BMP_temperature;BMP_pressure;BME280_temperature;BME280_humidity;BME280_pressure;Samples;Min_cycle;Max_cycle;Signal;HPM_P1;HPM_P2
2022/01/29 00:00:17;;;;;;;5.20;2.00;;;;;;101077.77;;;;107225;1273;63941;-34
2022/01/29 00:03:03;;;;;;;8.10;2.00;;;;;;101077.15;;;;107184;1274;65597;-39
2022/01/29 00:05:31;;;;;;;5.10;1.60;;;;;;101074.70;;;;107188;1273;63935;-36
2022/01/29 00:07:58;;;;;;;5.00;1.80;;;;;;101077.67;;;;107167;1273;63943;-36
2022/01/29 00:10:25;;;;;;;4.80;2.20;;;;;;101072.86;;;;107186;1276;64028;-46
2022/01/29 00:12:53;;;;;;;5.00;1.80;;;;;;101078.71;;;;107208;1273;63941;-34
2022/01/29 00:15:20;;;;;;;5.80;1.80;;;;;;101078.34;;;;107215;1274;66344;-35
2022/01/29 00:17:50;;;;;;;5.40;2.10;;;;;;101083.95;;;;107200;1275;63761;-35
2022/01/29 00:20:18;;;;;;;4.50;1.70;;;;;;101089.11;;;;107207;1274;63927;-35
2022/01/29 00:22:48;;;;;;;5.20;1.80;;;;;;101093.06;;;;107140;1275;64359;-33
2022/01/29 00:25:19;;;;;;;5.50;2.00;;;;;;101095.52;;;;107097;1275;64680;-33
2022/01/29 00:27:46;;;;;;;4.10;1.70;;;;;;101094.41;;;;107212;1273;65102;-36
2022/01/29 00:30:18;;;;;;;5.50;2.00;;;;;;101097.71;;;;107189;1275;63967;-36
2022/01/29 00:32:45;;;;;;;5.40;1.80;;;;;;101097.48;;;;107250;1275;62757;-36
2022/01/29 00:35:16;;;;;;;7.30;2.00;;;;;;101096.91;;;;107119;1275;64023;-37
2022/01/29 00:37:43;;;;;;;5.10;1.90;;;;;;101100.71;;;;107212;1274;64060;-35
2022/01/29 00:40:12;;;;;;;6.30;1.80;;;;;;101101.81;;;;107214;1275;63978;-33
2022/01/29 00:42:40;;;;;;;4.00;1.60;;;;;;101099.97;;;;107147;1274;63931;-35
2022/01/29 00:45:10;;;;;;;5.10;1.90;;;;;;101101.73;;;;107176;1274;64037;-36
2022/01/29 00:47:38;;;;;;;5.50;1.80;;;;;;101100.04;;;;107196;1275;64147;-36
2022/01/29 00:50:06;;;;;;;3.60;1.50;;;;;;101100.27;;;;107144;1274;64033;-36
2022/01/29 00:52:34;;;;;;;5.50;1.70;;;;;;101103.21;;;;107261;1274;64634;-33
2022/01/29 00:55:02;;;;;;;5.40;1.80;;;;;;101098.33;;;;107169;1274;62786;-34
2022/01/29 00:57:31;;;;;;;4.30;1.60;;;;;;101099.95;;;;107198;1274;64062;-34
2022/01/29 00:59:58;;;;;;;4.30;1.70;;;;;;101092.91;;;;107186;1274;63933;-35
2022/01/29 01:02:25;;;;;;;5.90;1.90;;;;;;101094.98;;;;107206;1274;64065;-34
2022/01/29 01:04:52;;;;;;;4.70;1.70;;;;;;101093.80;;;;106221;1274;1322084;-34
2022/01/29 01:07:19;;;;;;;5.10;1.80;;;;;;101097.29;;;;107161;1274;64039;-35
2022/01/29 01:09:47;;;;;;;6.00;1.90;;;;;;101091.85;;;;107168;1274;63931;-35
2022/01/29 01:12:14;;;;;;;4.30;1.40;;;;;;101092.80;;;;107199;1274;63960;-34
2022/01/29 01:14:45;;;;;;;4.20;1.60;;;;;;101092.27;;;;107224;1275;63935;-34
2022/01/29 01:17:16;;;;;;;4.10;1.70;;;;;;101093.20;;;;107228;1274;66519;-46
2022/01/29 01:19:47;;;;;;;4.90;1.70;;;;;;101086.39;;;;107185;1274;65615;-34
2022/01/29 01:22:15;;;;;;;4.30;1.70;;;;;;101084.84;;;;107233;1274;64036;-35
2022/01/29 01:24:47;;;;;;;5.30;1.90;;;;;;101083.05;;;;107162;1274;63945;-36
2022/01/29 01:27:15;;;;;;;4.90;1.70;;;;;;101080.31;;;;107179;1273;64026;-34
2022/01/29 01:29:43;;;;;;;4.10;1.70;;;;;;101074.92;;;;107219;1275;65330;-34
2022/01/29 01:32:11;;;;;;;4.20;1.90;;;;;;101071.54;;;;107174;1274;63965;-34
2022/01/29 01:34:46;;;;;;;4.30;1.60;;;;;;101066.11;;;;107171;1274;63958;-35
2022/01/29 01:37:23;;;;;;;4.80;1.80;;;;;;101060.78;;;;107176;1274;64136;-34
2022/01/29 01:39:50;;;;;;;5.20;1.80;;;;;;101058.84;;;;107163;1274;63919;-36
2022/01/29 01:42:20;;;;;;;4.80;1.80;;;;;;101060.05;;;;107213;1274;65686;-35
2022/01/29 01:44:52;;;;;;;4.50;1.80;;;;;;101060.27;;;;107182;1273;64047;-36
2022/01/29 01:47:20;;;;;;;5.20;1.90;;;;;;101062.30;;;;107199;1274;64030;-33
2022/01/29 01:49:50;;;;;;;5.30;2.10;;;;;;101064.04;;;;107172;1273;63936;-36
2022/01/29 01:52:20;;;;;;;5.40;2.10;;;;;;101059.42;;;;107220;1274;63829;-37
2022/01/29 01:54:58;;;;;;;4.80;1.90;;;;;;101057.69;;;;107203;1274;67445;-36
2022/01/29 01:57:27;;;;;;;4.90;2.10;;;;;;101052.96;;;;107221;1274;63951;-36
2022/01/29 01:59:55;;;;;;;4.40;2.00;;;;;;101053.05;;;;107199;1274;63982;-35
2022/01/29 02:02:22;;;;;;;4.60;1.80;;;;;;101053.61;;;;107202;1274;63920;-34
2022/01/29 02:04:52;;;;;;;5.40;1.90;;;;;;101046.03;;;;107198;1274;64199;-33
2022/01/29 02:07:19;;;;;;;4.80;2.00;;;;;;101049.54;;;;107213;1274;65341;-33
2022/01/29 02:09:50;;;;;;;5.40;2.00;;;;;;101047.31;;;;107186;1274;64145;-33
2022/01/29 02:12:20;;;;;;;5.00;2.10;;;;;;101045.02;;;;107188;1274;64085;-33
2022/01/29 02:14:51;;;;;;;5.20;1.80;;;;;;101043.27;;;;107204;1274;64136;-34
2022/01/29 02:17:21;;;;;;;4.80;1.80;;;;;;101043.29;;;;107204;1274;64026;-35
2022/01/29 02:19:48;;;;;;;4.70;1.70;;;;;;101044.22;;;;107177;1274;65619;-36
2022/01/29 02:22:15;;;;;;;5.10;2.10;;;;;;101045.48;;;;107204;1274;64034;-35
2022/01/29 02:24:46;;;;;;;5.50;2.10;;;;;;101046.71;;;;107202;1274;63917;-36
2022/01/29 02:27:16;;;;;;;4.50;1.90;;;;;;101043.56;;;;107170;1274;63190;-34
2022/01/29 02:29:49;;;;;;;4.50;1.90;;;;;;101046.02;;;;107210;1274;63945;-35
2022/01/29 02:32:16;;;;;;;4.20;1.70;;;;;;101046.48;;;;107219;1274;64071;-33
2022/01/29 02:34:46;;;;;;;6.10;2.00;;;;;;101043.20;;;;107189;1274;64094;-33
2022/01/29 02:37:17;;;;;;;5.30;2.20;;;;;;101039.80;;;;107218;1275;63920;-35
2022/01/29 02:39:48;;;;;;;4.40;1.90;;;;;;101042.23;;;;107168;1274;64118;-33
2022/01/29 02:42:15;;;;;;;5.20;2.20;;;;;;101047.23;;;;107233;1274;64382;-34
2022/01/29 02:44:42;;;;;;;5.20;1.90;;;;;;101047.81;;;;107186;1274;64047;-33
2022/01/29 02:47:30;;;;;;;4.90;2.10;;;;;;101049.23;;;;107199;1274;63917;-33
2022/01/29 02:49:57;;;;;;;4.70;2.00;;;;;;101050.92;;;;107193;1274;63920;-35
2022/01/29 02:52:25;;;;;;;5.80;2.10;;;;;;101049.69;;;;107144;1276;63945;-36
2022/01/29 02:54:52;;;;;;;5.10;2.00;;;;;;101048.38;;;;107194;1274;64142;-36
2022/01/29 02:57:22;;;;;;;3.70;1.70;;;;;;101047.97;;;;107205;1274;65108;-33
2022/01/29 02:59:51;;;;;;;4.40;2.20;;;;;;101048.44;;;;107199;1274;64027;-33
2022/01/29 03:02:21;;;;;;;5.00;2.10;;;;;;101049.55;;;;107203;1275;63939;-34
2022/01/29 03:04:49;;;;;;;4.50;1.80;;;;;;101044.10;;;;107151;1273;64133;-36
2022/01/29 03:07:16;;;;;;;4.60;2.00;;;;;;101048.36;;;;107223;1274;64039;-35
2022/01/29 03:09:43;;;;;;;5.00;2.10;;;;;;101044.33;;;;107120;1274;66833;-36
2022/01/29 03:12:13;;;;;;;5.00;2.10;;;;;;101044.45;;;;107173;1274;64172;-37
2022/01/29 03:14:40;;;;;;;4.60;2.10;;;;;;101044.56;;;;107171;1274;64206;-35
2022/01/29 03:17:11;;;;;;;4.20;1.60;;;;;;101043.86;;;;107178;1274;63962;-34
2022/01/29 03:19:39;;;;;;;4.50;1.90;;;;;;101050.11;;;;107198;1274;63932;-36
2022/01/29 03:22:06;;;;;;;4.70;2.20;;;;;;101050.98;;;;107210;1275;65607;-36
2022/01/29 03:24:33;;;;;;;4.60;2.00;;;;;;101046.27;;;;107215;1274;63926;-36
2022/01/29 03:27:02;;;;;;;4.80;2.10;;;;;;101047.04;;;;107144;1274;63900;-35
2022/01/29 03:29:30;;;;;;;6.20;2.20;;;;;;101040.90;;;;107209;1273;63946;-33
2022/01/29 03:31:57;;;;;;;5.30;2.10;;;;;;101038.72;;;;107188;1274;64043;-34
2022/01/29 03:34:24;;;;;;;4.80;2.00;;;;;;101033.80;;;;107177;1274;64044;-36
2022/01/29 03:36:54;;;;;;;4.00;1.70;;;;;;101031.40;;;;107222;1274;64041;-36
2022/01/29 03:39:25;;;;;;;5.10;1.90;;;;;;101029.91;;;;107179;1273;64103;-32
2022/01/29 03:41:54;;;;;;;4.40;2.00;;;;;;101040.03;;;;107140;1275;63970;-33
2022/01/29 03:44:21;;;;;;;5.30;2.00;;;;;;101044.48;;;;107271;1274;63905;-34
2022/01/29 03:46:51;;;;;;;4.90;1.90;;;;;;101045.48;;;;107136;1274;64054;-32
2022/01/29 03:49:19;;;;;;;4.90;2.30;;;;;;101043.21;;;;107186;1273;63923;-33
2022/01/29 03:51:49;;;;;;;5.10;1.80;;;;;;101042.58;;;;107179;1273;64060;-34
2022/01/29 03:54:16;;;;;;;3.90;1.70;;;;;;101049.41;;;;107185;1274;63919;-36
2022/01/29 03:56:46;;;;;;;5.30;2.20;;;;;;101053.26;;;;107258;1274;64052;-37
2022/01/29 03:59:13;;;;;;;4.90;2.10;;;;;;101049.09;;;;107186;1273;64382;-36
2022/01/29 04:01:43;;;;;;;5.50;2.30;;;;;;101046.23;;;;107175;1273;64063;-36
2022/01/29 04:04:11;;;;;;;5.20;2.10;;;;;;101050.96;;;;107192;1273;64139;-35
2022/01/29 04:06:39;;;;;;;4.80;1.70;;;;;;101049.95;;;;107225;1275;64035;-36
2022/01/29 04:09:10;;;;;;;5.60;2.20;;;;;;101052.17;;;;107197;1273;63940;-33
2022/01/29 04:11:40;;;;;;;4.90;2.30;;;;;;101053.45;;;;107204;1274;66122;-30
2022/01/29 04:14:16;;;;;;;4.40;1.80;;;;;;101048.73;;;;107137;1273;63935;-33
2022/01/29 04:16:46;;;;;;;4.90;2.20;;;;;;101049.60;;;;107185;1273;64028;-33
2022/01/29 04:19:16;;;;;;;4.40;2.30;;;;;;101051.10;;;;107176;1273;63967;-33
2022/01/29 04:21:44;;;;;;;4.60;2.00;;;;;;101050.23;;;;107204;1273;64072;-34
2022/01/29 04:24:14;;;;;;;5.20;2.00;;;;;;101051.55;;;;107182;1274;65617;-34
2022/01/29 04:26:41;;;;;;;3.90;1.90;;;;;;101048.45;;;;107116;1274;64051;-32
2022/01/29 04:29:08;;;;;;;4.10;1.90;;;;;;101045.08;;;;107181;1273;64018;-35
2022/01/29 04:31:59;;;;;;;4.10;1.60;;;;;;101045.86;;;;107167;1273;63998;-36
2022/01/29 04:34:23;;;;;;;4.00;1.90;;;;;;101045.86;;;;107210;1273;63942;-33
2022/01/29 04:36:53;;;;;;;4.80;1.90;;;;;;101043.98;;;;107180;1274;64056;-33
2022/01/29 04:39:24;;;;;;;4.10;2.00;;;;;;101044.02;;;;107209;1273;63944;-32
2022/01/29 04:41:54;;;;;;;5.20;2.00;;;;;;101037.65;;;;107198;1273;63900;-34
2022/01/29 04:44:21;;;;;;;5.20;2.00;;;;;;101034.54;;;;107176;1273;64101;-35
2022/01/29 04:46:48;;;;;;;5.10;1.80;;;;;;101036.71;;;;107179;1273;64069;-35
2022/01/29 04:49:16;;;;;;;4.50;1.70;;;;;;101033.55;;;;107205;1273;65110;-36
2022/01/29 04:51:46;;;;;;;4.20;1.80;;;;;;101031.59;;;;107124;1273;64126;-37
2022/01/29 04:54:13;;;;;;;4.80;2.00;;;;;;101029.61;;;;107164;1273;62759;-36
2022/01/29 04:56:40;;;;;;;4.30;1.70;;;;;;101025.25;;;;107128;1274;64026;-42
2022/01/29 04:59:10;;;;;;;3.80;1.80;;;;;;101029.02;;;;107177;1273;64697;-34
2022/01/29 05:01:39;;;;;;;4.80;2.20;;;;;;101023.29;;;;107178;1273;65231;-33
2022/01/29 05:04:06;;;;;;;4.10;1.80;;;;;;101019.10;;;;107144;1273;64060;-35
2022/01/29 05:06:33;;;;;;;4.50;1.90;;;;;;101013.80;;;;107162;1273;64069;-35
2022/01/29 05:09:00;;;;;;;4.90;2.10;;;;;;101011.38;;;;107141;1273;63926;-36
2022/01/29 05:11:28;;;;;;;4.60;2.00;;;;;;101013.20;;;;107198;1273;64049;-36
2022/01/29 05:13:56;;;;;;;4.20;1.70;;;;;;101007.00;;;;107275;1273;63998;-36
2022/01/29 05:27:13;;;;;;;3.80;1.80;;;;;;100993.33;;;;107151;1273;66387;-36
2022/01/29 05:29:40;;;;;;;4.80;2.20;;;;;;100989.81;;;;107158;1273;64012;-35
2022/01/29 05:32:11;;;;;;;5.10;1.90;;;;;;100986.61;;;;107179;1273;63935;-36
2022/01/29 05:34:40;;;;;;;4.40;2.10;;;;;;100992.48;;;;107187;1273;63926;-41
2022/01/29 05:37:11;;;;;;;4.20;1.80;;;;;;100990.16;;;;107164;1273;63963;-36
2022/01/29 05:39:38;;;;;;;4.80;2.10;;;;;;100986.06;;;;107161;1273;65390;-32
2022/01/29 05:42:07;;;;;;;4.50;1.90;;;;;;100985.56;;;;107150;1273;63945;-33
2022/01/29 05:44:34;;;;;;;5.30;2.20;;;;;;100979.52;;;;107222;1273;64019;-33
2022/01/29 05:47:01;;;;;;;5.70;2.40;;;;;;100979.73;;;;107159;1273;64073;-33
2022/01/29 05:49:28;;;;;;;4.30;2.10;;;;;;100978.20;;;;107190;1273;64039;-36
2022/01/29 05:51:56;;;;;;;4.70;2.30;;;;;;100978.86;;;;107163;1273;64471;-34
2022/01/29 05:54:23;;;;;;;5.10;2.10;;;;;;100982.87;;;;107182;1273;64019;-38
2022/01/29 05:56:50;;;;;;;5.10;2.00;;;;;;100980.65;;;;107173;1273;64016;-40
2022/01/29 05:59:18;;;;;;;4.70;1.80;;;;;;100974.42;;;;107165;1273;63934;-34
2022/01/29 06:01:45;;;;;;;4.50;2.00;;;;;;100975.70;;;;107197;1273;63928;-33
2022/01/29 06:04:13;;;;;;;5.10;2.00;;;;;;100972.71;;;;107188;1273;64079;-34
2022/01/29 06:06:40;;;;;;;4.70;2.10;;;;;;100974.21;;;;107149;1273;64150;-33
2022/01/29 06:09:07;;;;;;;5.00;2.00;;;;;;100977.46;;;;107200;1272;64065;-35
2022/01/29 06:11:34;;;;;;;4.90;2.00;;;;;;100977.06;;;;107122;1273;63926;-34
2022/01/29 06:14:02;;;;;;;4.10;1.90;;;;;;100971.30;;;;107217;1273;64032;-34
2022/01/29 06:16:30;;;;;;;5.70;2.20;;;;;;100970.17;;;;107209;1273;65449;-33
2022/01/29 06:18:57;;;;;;;5.00;2.20;;;;;;100972.10;;;;107148;1273;64133;-33
2022/01/29 06:21:24;;;;;;;4.70;2.10;;;;;;100970.63;;;;107156;1273;64041;-33
2022/01/29 06:23:51;;;;;;;4.90;2.20;;;;;;100969.04;;;;107171;1274;64149;-35
2022/01/29 06:26:19;;;;;;;5.20;2.20;;;;;;100964.05;;;;107144;1274;64115;-36
2022/01/29 06:28:46;;;;;;;4.50;1.80;;;;;;100964.73;;;;107175;1273;65368;-34
2022/01/29 06:31:16;;;;;;;4.50;1.90;;;;;;100971.09;;;;107157;1273;64032;-33
2022/01/29 06:33:44;;;;;;;5.20;2.30;;;;;;100970.04;;;;107188;1273;63919;-34
2022/01/29 06:36:12;;;;;;;4.80;2.00;;;;;;100973.27;;;;107162;1274;64073;-35
2022/01/29 06:38:39;;;;;;;4.40;1.90;;;;;;100972.84;;;;107180;1274;64066;-39
2022/01/29 06:41:07;;;;;;;4.90;2.00;;;;;;100975.08;;;;107167;1273;65648;-35
2022/01/29 06:43:34;;;;;;;4.90;2.20;;;;;;100979.33;;;;107140;1274;63896;-35
2022/01/29 06:46:01;;;;;;;5.50;2.50;;;;;;100981.91;;;;107144;1274;64029;-40
2022/01/29 06:48:28;;;;;;;4.30;2.00;;;;;;100977.95;;;;107151;1274;63939;-36
2022/01/29 06:50:55;;;;;;;5.20;2.20;;;;;;100985.81;;;;107172;1273;63934;-35
2022/01/29 06:53:23;;;;;;;4.60;2.10;;;;;;100982.67;;;;107168;1274;64199;-36
2022/01/29 06:55:50;;;;;;;4.60;1.90;;;;;;100986.30;;;;107152;1273;64051;-36
2022/01/29 06:58:21;;;;;;;5.70;2.60;;;;;;100981.84;;;;107193;1274;63928;-35
2022/01/29 07:00:48;;;;;;;4.20;2.20;;;;;;100976.42;;;;107165;1274;64026;-35
2022/01/29 07:03:15;;;;;;;4.90;2.70;;;;;;100970.66;;;;107180;1274;63957;-35
2022/01/29 07:05:43;;;;;;;4.70;2.30;;;;;;100964.20;;;;107189;1273;63949;-36
2022/01/29 07:08:10;;;;;;;5.70;2.20;;;;;;100958.57;;;;107197;1274;64053;-39
2022/01/29 07:10:38;;;;;;;6.20;2.50;;;;;;100953.82;;;;107199;1273;64006;-36
2022/01/29 07:13:08;;;;;;;4.60;2.30;;;;;;100948.52;;;;107176;1273;64054;-36
2022/01/29 07:15:36;;;;;;;5.40;2.20;;;;;;100947.33;;;;107192;1274;64079;-36
2022/01/29 07:18:03;;;;;;;5.00;2.20;;;;;;100941.33;;;;107205;1273;65178;-34
2022/01/29 07:20:31;;;;;;;4.50;2.10;;;;;;100933.39;;;;107165;1273;64055;-42
2022/01/29 07:22:58;;;;;;;5.00;2.00;;;;;;100924.31;;;;107193;1274;63915;-33
2022/01/29 07:25:26;;;;;;;5.40;2.40;;;;;;100925.58;;;;107149;1273;63925;-33
2022/01/29 07:27:53;;;;;;;5.20;2.40;;;;;;100921.66;;;;107220;1274;64036;-32
2022/01/29 07:30:20;;;;;;;5.60;2.30;;;;;;100917.50;;;;107179;1273;63938;-34
2022/01/29 07:32:47;;;;;;;6.00;2.30;;;;;;100915.06;;;;107182;1273;64035;-34
2022/01/29 07:35:15;;;;;;;5.00;2.30;;;;;;100908.75;;;;107165;1274;63875;-33
2022/01/29 07:37:42;;;;;;;5.70;2.40;;;;;;100908.34;;;;107218;1274;64174;-33
2022/01/29 07:40:12;;;;;;;5.70;2.50;;;;;;100899.65;;;;107192;1274;64063;-34
2022/01/29 07:42:40;;;;;;;5.00;2.20;;;;;;100896.40;;;;107144;1274;66833;-35
2022/01/29 07:45:08;;;;;;;5.30;2.60;;;;;;100899.20;;;;107135;1274;64033;-36
2022/01/29 07:47:38;;;;;;;5.20;2.50;;;;;;100894.23;;;;107188;1274;64040;-36
2022/01/29 07:50:07;;;;;;;5.00;2.00;;;;;;100887.55;;;;107149;1274;63886;-35
2022/01/29 07:52:34;;;;;;;5.10;2.60;;;;;;100884.96;;;;107193;1273;63814;-35
2022/01/29 07:55:01;;;;;;;5.60;2.80;;;;;;100882.70;;;;107168;1274;64045;-33
2022/01/29 07:57:29;;;;;;;5.60;2.40;;;;;;100879.53;;;;107171;1273;63949;-34
2022/01/29 07:59:56;;;;;;;5.00;2.50;;;;;;100880.79;;;;107120;1274;63939;-34
2022/01/29 08:02:23;;;;;;;5.40;2.30;;;;;;100873.66;;;;107136;1273;64127;-38
2022/01/29 08:04:54;;;;;;;5.00;2.40;;;;;;100868.43;;;;107161;1273;64083;-35
2022/01/29 08:07:21;;;;;;;6.00;2.70;;;;;;100865.82;;;;107168;1273;65149;-34
2022/01/29 08:09:49;;;;;;;5.60;2.60;;;;;;100858.73;;;;107194;1273;63938;-34
2022/01/29 08:12:19;;;;;;;5.60;2.40;;;;;;100861.02;;;;107173;1274;63878;-36
2022/01/29 08:14:47;;;;;;;5.80;2.40;;;;;;100856.38;;;;107109;1274;64031;-36
2022/01/29 08:17:14;;;;;;;5.40;2.80;;;;;;100849.61;;;;107184;1273;63913;-32
2022/01/29 08:19:41;;;;;;;5.90;2.80;;;;;;100848.95;;;;107167;1273;65060;-34
2022/01/29 08:22:09;;;;;;;5.80;2.70;;;;;;100843.48;;;;107155;1273;66213;-34
2022/01/29 08:24:36;;;;;;;5.40;2.50;;;;;;100839.10;;;;107176;1273;63810;-34
2022/01/29 08:27:04;;;;;;;5.60;2.50;;;;;;100838.09;;;;107157;1273;64044;-33
2022/01/29 08:29:31;;;;;;;5.70;2.80;;;;;;100832.10;;;;107209;1273;64168;-33
2022/01/29 08:31:59;;;;;;;5.70;2.80;;;;;;100832.17;;;;107165;1273;64478;-33
2022/01/29 08:34:26;;;;;;;5.30;2.60;;;;;;100828.15;;;;107171;1273;64083;-34
2022/01/29 08:36:57;;;;;;;6.10;2.50;;;;;;100817.70;;;;107145;1273;63939;-34
2022/01/29 08:39:25;;;;;;;5.80;2.80;;;;;;100821.21;;;;107172;1273;64028;-36
2022/01/29 08:41:52;;;;;;;5.60;2.70;;;;;;100811.79;;;;107153;1273;64060;-37
2022/01/29 08:44:19;;;;;;;5.90;3.00;;;;;;100809.75;;;;107151;1273;66894;-35
2022/01/29 08:46:47;;;;;;;6.70;3.00;;;;;;100810.27;;;;107178;1273;63917;-38
2022/01/29 08:49:18;;;;;;;5.00;2.40;;;;;;100811.73;;;;107219;1273;63041;-36
2022/01/29 08:51:45;;;;;;;5.90;2.70;;;;;;100802.80;;;;107076;1273;64029;-36
2022/01/29 08:54:12;;;;;;;5.60;2.60;;;;;;100793.30;;;;107243;1273;63854;-33
2022/01/29 08:56:39;;;;;;;6.20;3.10;;;;;;100794.21;;;;107223;1273;64243;-33
2022/01/29 08:59:07;;;;;;;6.60;2.90;;;;;;100799.52;;;;107204;1273;64045;-33
2022/01/29 09:01:34;;;;;;;5.70;2.70;;;;;;100798.73;;;;107242;1273;63946;-34
2022/01/29 09:04:01;;;;;;;5.90;2.70;;;;;;100797.86;;;;106949;1273;273666;-36
2022/01/29 09:06:29;;;;;;;6.50;3.30;;;;;;100796.65;;;;107229;1273;64071;-36
2022/01/29 09:08:57;;;;;;;5.60;2.90;;;;;;100806.38;;;;107231;1273;64469;-46
2022/01/29 09:11:24;;;;;;;5.50;2.80;;;;;;100798.59;;;;107154;1273;64025;-36
2022/01/29 09:13:51;;;;;;;5.80;2.70;;;;;;100799.15;;;;107233;1273;64035;-34
2022/01/29 09:16:19;;;;;;;6.40;3.30;;;;;;100792.99;;;;107211;1273;63918;-34
2022/01/29 09:18:49;;;;;;;6.90;3.10;;;;;;100799.38;;;;107232;1273;64050;-33
2022/01/29 09:21:16;;;;;;;5.50;3.10;;;;;;100795.11;;;;107230;1273;65031;-33
2022/01/29 09:23:44;;;;;;;5.90;3.20;;;;;;100792.71;;;;107232;1272;64108;-36
2022/01/29 09:26:11;;;;;;;6.00;2.90;;;;;;100786.98;;;;107220;1273;63975;-36
2022/01/29 09:28:39;;;;;;;5.80;2.70;;;;;;100785.26;;;;107230;1273;64089;-35
2022/01/29 09:31:06;;;;;;;5.70;3.00;;;;;;100776.77;;;;107247;1273;63897;-36
2022/01/29 09:33:33;;;;;;;6.10;3.10;;;;;;100773.81;;;;107248;1273;65317;-36
2022/01/29 09:36:00;;;;;;;6.10;3.00;;;;;;100773.33;;;;107224;1273;63910;-33
2022/01/29 09:38:27;;;;;;;6.80;3.10;;;;;;100769.90;;;;107228;1273;63940;-35
2022/01/29 09:40:55;;;;;;;5.80;2.60;;;;;;100768.63;;;;107230;1273;64062;-34
2022/01/29 09:43:26;;;;;;;7.70;3.00;;;;;;100751.43;;;;107249;1273;64605;-33
2022/01/29 09:45:54;;;;;;;6.60;3.20;;;;;;100744.77;;;;107267;1273;65509;-34
2022/01/29 09:48:28;;;;;;;5.70;2.70;;;;;;100738.66;;;;107258;1273;64059;-34
2022/01/29 09:50:58;;;;;;;6.30;3.10;;;;;;100730.98;;;;107172;1273;64048;-34
2022/01/29 09:53:25;;;;;;;6.50;3.00;;;;;;100720.80;;;;107234;1273;64139;-36
2022/01/29 09:55:53;;;;;;;6.50;2.90;;;;;;100719.18;;;;107179;1273;64082;-36
2022/01/29 09:58:20;;;;;;;7.20;2.80;;;;;;100719.79;;;;107225;1273;65587;-34
2022/01/29 10:00:47;;;;;;;8.20;3.40;;;;;;100712.60;;;;107238;1273;64614;-34
2022/01/29 10:03:19;;;;;;;6.00;2.90;;;;;;100704.95;;;;107212;1273;63913;-36
2022/01/29 10:05:52;;;;;;;5.80;2.80;;;;;;100701.51;;;;107163;1273;64128;-36
2022/01/29 10:08:21;;;;;;;5.90;3.00;;;;;;100699.86;;;;107240;1273;64062;-34
2022/01/29 10:10:52;;;;;;;5.90;3.20;;;;;;100687.36;;;;107268;1273;65278;-34
2022/01/29 10:13:36;;;;;;;7.00;3.00;;;;;;100685.63;;;;107209;1271;63970;-36
2022/01/29 10:16:19;;;;;;;5.60;2.70;;;;;;100672.23;;;;107209;1273;64051;-36
2022/01/29 10:19:11;;;;;;;5.50;2.70;;;;;;100662.39;;;;107243;1273;64064;-35
2022/01/29 10:21:47;;;;;;;6.70;2.90;;;;;;100656.55;;;;107221;1273;64247;-34
2022/01/29 10:24:19;;;;;;;6.00;2.70;;;;;;100652.81;;;;107184;1273;66296;-36
2022/01/29 10:26:49;;;;;;;7.70;3.50;;;;;;100638.97;;;;107245;1273;64057;-36
2022/01/29 10:29:23;;;;;;;7.50;3.50;;;;;;100630.79;;;;107247;1273;64050;-35
2022/01/29 10:31:57;;;;;;;7.60;3.40;;;;;;100627.61;;;;107242;1273;64051;-34
2022/01/29 10:34:28;;;;;;;7.00;3.10;;;;;;100626.18;;;;107269;1273;64065;-33
2022/01/29 10:37:25;;;;;;;7.10;3.50;;;;;;100621.84;;;;107260;1273;65004;-33
2022/01/29 10:40:13;;;;;;;6.70;2.90;;;;;;100613.25;;;;107244;1273;63941;-34
2022/01/29 10:42:43;;;;;;;6.90;3.20;;;;;;100604.09;;;;107220;1273;63946;-36
2022/01/29 10:45:10;;;;;;;7.60;3.20;;;;;;100598.35;;;;107142;1273;63952;-34
2022/01/29 10:47:58;;;;;;;5.70;2.90;;;;;;100589.92;;;;107221;1273;63926;-34
2022/01/29 10:50:27;;;;;;;6.60;3.20;;;;;;100584.15;;;;107241;1273;66257;-33
2022/01/29 10:52:56;;;;;;;8.30;3.60;;;;;;100576.87;;;;107263;1273;64009;-34
2022/01/29 10:55:23;;;;;;;7.90;3.30;;;;;;100568.81;;;;107223;1273;64026;-33
2022/01/29 10:57:53;;;;;;;7.50;2.90;;;;;;100564.39;;;;107215;1273;64034;-34
2022/01/29 11:00:30;;;;;;;6.70;3.50;;;;;;100559.10;;;;107255;1273;63954;-34
2022/01/29 11:03:00;;;;;;;8.10;3.50;;;;;;100549.39;;;;107205;1273;66464;-36
2022/01/29 11:05:31;;;;;;;7.00;3.50;;;;;;100551.84;;;;107064;1273;63922;-35
2022/01/29 11:08:01;;;;;;;6.40;3.10;;;;;;100552.33;;;;107132;1273;64030;-35
2022/01/29 11:10:29;;;;;;;7.20;3.40;;;;;;100550.55;;;;107144;1273;64009;-33
2022/01/29 11:12:56;;;;;;;7.70;3.50;;;;;;100538.32;;;;107108;1275;63321;-33
2022/01/29 11:15:25;;;;;;;7.40;3.60;;;;;;100530.31;;;;107150;1273;65669;-38
2022/01/29 11:17:52;;;;;;;8.90;3.80;;;;;;100536.11;;;;107156;1273;64051;-32
2022/01/29 11:20:20;;;;;;;9.50;3.50;;;;;;100529.21;;;;107150;1273;63943;-36
2022/01/29 11:22:49;;;;;;;8.20;3.50;;;;;;100521.85;;;;107145;1273;64140;-35
2022/01/29 11:25:21;;;;;;;6.60;3.20;;;;;;100514.38;;;;107174;1273;64031;-32
2022/01/29 11:28:13;;;;;;;6.60;2.90;;;;;;100502.36;;;;107150;1273;65047;-30
2022/01/29 11:30:47;;;;;;;7.10;3.70;;;;;;100492.40;;;;107053;1276;63957;-30
2022/01/29 11:33:14;;;;;;;8.50;3.50;;;;;;100486.39;;;;107158;1273;63176;-30
2022/01/29 11:35:55;;;;;;;7.80;3.50;;;;;;100480.29;;;;107124;1273;64076;-30
2022/01/29 11:38:31;;;;;;;6.60;3.20;;;;;;100472.66;;;;107193;1273;64037;-34
2022/01/29 11:41:03;;;;;;;7.80;3.80;;;;;;100461.20;;;;107175;1273;66160;-32
2022/01/29 11:43:34;;;;;;;6.90;3.60;;;;;;100460.46;;;;107133;1273;63939;-32
2022/01/29 11:46:20;;;;;;;7.00;3.50;;;;;;100447.22;;;;107158;1273;63942;-33
2022/01/29 11:48:51;;;;;;;7.00;3.70;;;;;;100437.44;;;;107111;1273;63895;-34
2022/01/29 11:51:49;;;;;;;6.60;3.50;;;;;;100425.96;;;;107125;1274;63992;-31
2022/01/29 11:54:26;;;;;;;7.60;3.60;;;;;;100414.31;;;;107150;1273;66315;-31
2022/01/29 11:57:14;;;;;;;7.00;3.90;;;;;;100408.46;;;;107153;1273;63962;-31
2022/01/29 11:59:42;;;;;;;7.40;3.50;;;;;;100400.83;;;;107051;1274;64063;-30
2022/01/29 12:02:15;;;;;;;7.60;3.30;;;;;;100391.66;;;;107167;1273;63950;-30
2022/01/29 12:04:58;;;;;;;;;;;;;;100389.56;;;;107161;1273;63952;-30
2022/01/29 12:07:34;;;;;;;7.40;3.60;;;;;;100386.88;;;;107172;1273;66568;-31
2022/01/29 12:10:14;;;;;;;7.20;3.70;;;;;;100379.63;;;;106983;1273;64498;-34
2022/01/29 12:12:46;;;;;;;7.10;3.10;;;;;;100367.51;;;;107088;1276;63929;-31
2022/01/29 12:15:13;;;;;;;7.20;3.30;;;;;;100355.20;;;;107135;1273;64044;-31
2022/01/29 12:18:02;;;;;;;7.20;3.50;;;;;;100351.16;;;;107130;1274;63834;-34
2022/01/29 12:20:30;;;;;;;6.70;3.40;;;;;;100347.59;;;;107066;1274;66031;-33
2022/01/29 12:23:06;;;;;;;8.70;3.90;;;;;;100346.09;;;;107134;1275;62619;-34
2022/01/29 12:25:33;;;;;;;7.80;4.00;;;;;;100348.70;;;;107190;1273;64104;-33
2022/01/29 12:28:05;;;;;;;8.10;3.80;;;;;;100343.29;;;;107143;1273;64755;-33
2022/01/29 12:30:38;;;;;;;6.80;3.40;;;;;;100331.60;;;;107203;1273;64055;-34
2022/01/29 12:33:24;;;;;;;6.90;3.50;;;;;;100324.27;;;;107164;1273;66286;-32
2022/01/29 12:35:59;;;;;;;8.80;3.70;;;;;;100320.59;;;;107110;1274;65151;-33
2022/01/29 12:38:34;;;;;;;8.30;3.50;;;;;;100309.86;;;;107143;1273;63981;-33
2022/01/29 12:41:24;;;;;;;7.70;3.90;;;;;;100297.51;;;;107095;1273;63920;-31
2022/01/29 12:43:54;;;;;;;7.00;3.80;;;;;;100293.84;;;;107137;1273;64046;-30
2022/01/29 12:46:25;;;;;;;8.20;4.10;;;;;;100278.98;;;;107104;1276;65294;-39
2022/01/29 12:49:06;;;;;;;7.60;4.00;;;;;;100268.44;;;;107069;1276;63939;-39
2022/01/29 12:51:36;;;;;;;10.10;3.90;;;;;;100261.02;;;;107123;1274;64037;-38
2022/01/29 12:54:07;;;;;;;6.50;3.30;;;;;;100257.41;;;;107130;1273;64652;-33
2022/01/29 12:56:37;;;;;;;6.60;3.40;;;;;;100247.55;;;;107146;1276;63914;-38
2022/01/29 12:59:09;;;;;;;7.30;3.70;;;;;;100239.48;;;;107164;1273;65450;-33
2022/01/29 13:01:38;;;;;;;6.80;3.80;;;;;;100228.48;;;;107152;1273;64041;-37
2022/01/29 13:04:13;;;;;;;7.00;3.50;;;;;;100226.65;;;;107186;1273;63895;-33
2022/01/29 13:06:41;;;;;;;8.90;3.80;;;;;;100221.11;;;;107130;1274;63897;-32
2022/01/29 13:09:20;;;;;;;8.80;4.00;;;;;;100224.39;;;;107130;1274;64105;-35
2022/01/29 13:11:56;;;;;;;7.40;3.60;;;;;;100219.18;;;;107153;1273;65310;-38